sensor_id;sensor_type;location;lat;lon;timestamp;temperature;humidity
34153;DHT22;20426;48.372;10.888;2023-09-30T00:00:11;17.90;99.90
34153;DHT22;20426;48.372;10.888;2023-09-30T00:00:43;17.90;99.90
34153;DHT22;20426;48.372;10.888;2023-09-30T00:01:14;17.90;99.90
34153;DHT22;20426;48.372;10.888;2023-09-30T00:01:45;17.90;99.90
34153;DHT22;20426;48.372;10.888;2023-09-30T00:02:16;17.90;99.90
34153;DHT22;20426;48.372;10.888;2023-09-30T00:02:46;17.90;99.90
34153;DHT22;20426;48.372;10.888;2023-09-30T00:03:17;17.90;99.90
34153;DHT22;20426;48.372;10.888;2023-09-30T00:03:48;17.80;99.90
34153;DHT22;20426;48.372;10.888;2023-09-30T00:04:19;17.90;99.90
34153;DHT22;20426;48.372;10.888;2023-09-30T00:04:50;17.90;99.90
34153;DHT22;20426;48.372;10.888;2023-09-30T00:05:20;17.90;99.90
34153;DHT22;20426;48.372;10.888;2023-09-30T00:05:51;17.80;99.90
34153;DHT22;20426;48.372;10.888;2023-09-30T00:06:22;17.90;99.90
34153;DHT22;20426;48.372;10.888;2023-09-30T00:06:52;17.80;99.90
34153;DHT22;20426;48.372;10.888;2023-09-30T00:07:23;17.80;99.90
34153;DHT22;20426;48.372;10.888;2023-09-30T00:07:54;17.90;99.90
34153;DHT22;20426;48.372;10.888;2023-09-30T00:08:24;17.80;99.90
34153;DHT22;20426;48.372;10.888;2023-09-30T00:08:55;17.90;99.90
34153;DHT22;20426;48.372;10.888;2023-09-30T00:09:26;17.80;99.90
34153;DHT22;20426;48.372;10.888;2023-09-30T00:09:57;17.80;99.90
34153;DHT22;20426;48.372;10.888;2023-09-30T00:10:28;17.80;99.90
34153;DHT22;20426;48.372;10.888;2023-09-30T00:11:00;17.80;99.90
34153;DHT22;20426;48.372;10.888;2023-09-30T00:11:31;17.80;99.90
34153;DHT22;20426;48.372;10.888;2023-09-30T00:12:02;17.80;99.90
34153;DHT22;20426;48.372;10.888;2023-09-30T00:12:33;17.80;99.90
34153;DHT22;20426;48.372;10.888;2023-09-30T00:13:04;17.80;99.90
34153;DHT22;20426;48.372;10.888;2023-09-30T00:13:37;17.80;99.90
34153;DHT22;20426;48.372;10.888;2023-09-30T00:14:07;17.80;99.90
34153;DHT22;20426;48.372;10.888;2023-09-30T00:14:38;17.80;99.90
34153;DHT22;20426;48.372;10.888;2023-09-30T00:15:09;17.80;99.90
34153;DHT22;20426;48.372;10.888;2023-09-30T00:15:40;17.90;99.90
34153;DHT22;20426;48.372;10.888;2023-09-30T00:16:11;17.80;99.90
34153;DHT22;20426;48.372;10.888;2023-09-30T00:16:42;17.90;99.90
34153;DHT22;20426;48.372;10.888;2023-09-30T00:17:12;17.90;99.90
34153;DHT22;20426;48.372;10.888;2023-09-30T00:17:43;17.90;99.90
34153;DHT22;20426;48.372;10.888;2023-09-30T00:18:14;17.90;99.90
34153;DHT22;20426;48.372;10.888;2023-09-30T00:18:45;17.80;99.90
34153;DHT22;20426;48.372;10.888;2023-09-30T00:19:16;17.80;99.90
34153;DHT22;20426;48.372;10.888;2023-09-30T00:19:47;17.80;99.90
34153;DHT22;20426;48.372;10.888;2023-09-30T00:20:18;17.80;99.90
34153;DHT22;20426;48.372;10.888;2023-09-30T00:20:48;17.80;99.90
34153;DHT22;20426;48.372;10.888;2023-09-30T00:21:19;17.80;99.90
34153;DHT22;20426;48.372;10.888;2023-09-30T00:21:50;17.80;99.90
34153;DHT22;20426;48.372;10.888;2023-09-30T00:22:21;17.80;99.90
34153;DHT22;20426;48.372;10.888;2023-09-30T00:22:51;17.80;99.90
34153;DHT22;20426;48.372;10.888;2023-09-30T00:23:22;17.70;99.90
34153;DHT22;20426;48.372;10.888;2023-09-30T00:23:54;17.80;99.90
34153;DHT22;20426;48.372;10.888;2023-09-30T00:24:24;17.70;99.90
34153;DHT22;20426;48.372;10.888;2023-09-30T00:24:56;17.70;99.90
34153;DHT22;20426;48.372;10.888;2023-09-30T00:25:26;17.70;99.90
34153;DHT22;20426;48.372;10.888;2023-09-30T00:25:58;17.70;99.90
34153;DHT22;20426;48.372;10.888;2023-09-30T00:26:30;17.70;99.90
34153;DHT22;20426;48.372;10.888;2023-09-30T00:27:01;17.70;99.90
34153;DHT22;20426;48.372;10.888;2023-09-30T00:27:32;17.60;99.90
34153;DHT22;20426;48.372;10.888;2023-09-30T00:28:03;17.60;99.90
34153;DHT22;20426;48.372;10.888;2023-09-30T00:28:33;17.60;99.90
34153;DHT22;20426;48.372;10.888;2023-09-30T00:29:05;17.60;99.90
34153;DHT22;20426;48.372;10.888;2023-09-30T00:29:35;17.60;99.90
34153;DHT22;20426;48.372;10.888;2023-09-30T00:30:06;17.60;99.90
34153;DHT22;20426;48.372;10.888;2023-09-30T00:30:37;17.60;99.90
34153;DHT22;20426;48.372;10.888;2023-09-30T00:31:08;17.60;99.90
34153;DHT22;20426;48.372;10.888;2023-09-30T00:31:40;17.60;99.90
34153;DHT22;20426;48.372;10.888;2023-09-30T00:32:11;17.60;99.90
34153;DHT22;20426;48.372;10.888;2023-09-30T00:32:42;17.60;99.90
34153;DHT22;20426;48.372;10.888;2023-09-30T00:33:13;17.60;99.90
34153;DHT22;20426;48.372;10.888;2023-09-30T00:33:44;17.60;99.90
34153;DHT22;20426;48.372;10.888;2023-09-30T00:34:15;17.50;99.90
34153;DHT22;20426;48.372;10.888;2023-09-30T00:34:45;17.50;99.90
34153;DHT22;20426;48.372;10.888;2023-09-30T00:35:16;17.50;99.90
34153;DHT22;20426;48.372;10.888;2023-09-30T00:35:47;17.50;99.90
34153;DHT22;20426;48.372;10.888;2023-09-30T00:36:17;17.40;99.90
34153;DHT22;20426;48.372;10.888;2023-09-30T00:36:48;17.50;99.90
34153;DHT22;20426;48.372;10.888;2023-09-30T00:37:19;17.50;99.90
34153;DHT22;20426;48.372;10.888;2023-09-30T00:37:50;17.40;99.90
34153;DHT22;20426;48.372;10.888;2023-09-30T00:38:20;17.50;99.90
34153;DHT22;20426;48.372;10.888;2023-09-30T00:38:54;17.50;99.90
34153;DHT22;20426;48.372;10.888;2023-09-30T00:39:24;17.50;99.90
34153;DHT22;20426;48.372;10.888;2023-09-30T00:39:57;17.50;99.90
34153;DHT22;20426;48.372;10.888;2023-09-30T00:40:28;17.50;99.90
34153;DHT22;20426;48.372;10.888;2023-09-30T00:40:58;17.50;99.90
34153;DHT22;20426;48.372;10.888;2023-09-30T00:41:29;17.50;99.90
34153;DHT22;20426;48.372;10.888;2023-09-30T00:42:00;17.50;99.90
34153;DHT22;20426;48.372;10.888;2023-09-30T00:42:31;17.50;99.90
34153;DHT22;20426;48.372;10.888;2023-09-30T00:43:01;17.50;99.90
34153;DHT22;20426;48.372;10.888;2023-09-30T00:43:33;17.50;99.90
34153;DHT22;20426;48.372;10.888;2023-09-30T00:44:04;17.50;99.90
34153;DHT22;20426;48.372;10.888;2023-09-30T00:44:35;17.50;99.90
34153;DHT22;20426;48.372;10.888;2023-09-30T00:45:06;17.50;99.90
34153;DHT22;20426;48.372;10.888;2023-09-30T00:45:37;17.40;99.90
34153;DHT22;20426;48.372;10.888;2023-09-30T00:46:29;17.50;99.90
34153;DHT22;20426;48.372;10.888;2023-09-30T00:47:00;17.50;99.90
34153;DHT22;20426;48.372;10.888;2023-09-30T00:47:31;17.50;99.90
34153;DHT22;20426;48.372;10.888;2023-09-30T00:48:03;17.40;99.90
34153;DHT22;20426;48.372;10.888;2023-09-30T00:48:34;17.50;99.90
34153;DHT22;20426;48.372;10.888;2023-09-30T00:49:05;17.40;99.90
34153;DHT22;20426;48.372;10.888;2023-09-30T00:49:37;17.40;99.90
34153;DHT22;20426;48.372;10.888;2023-09-30T00:50:09;17.40;99.90
34153;DHT22;20426;48.372;10.888;2023-09-30T00:50:41;17.40;99.90
34153;DHT22;20426;48.372;10.888;2023-09-30T00:51:11;17.40;99.90
34153;DHT22;20426;48.372;10.888;2023-09-30T00:51:42;17.40;99.90
34153;DHT22;20426;48.372;10.888;2023-09-30T00:52:13;17.40;99.90
34153;DHT22;20426;48.372;10.888;2023-09-30T00:52:45;17.40;99.90
34153;DHT22;20426;48.372;10.888;2023-09-30T00:53:16;17.40;99.90
34153;DHT22;20426;48.372;10.888;2023-09-30T00:53:47;17.40;99.90
34153;DHT22;20426;48.372;10.888;2023-09-30T00:54:18;17.40;99.90
34153;DHT22;20426;48.372;10.888;2023-09-30T00:54:50;17.40;99.90
34153;DHT22;20426;48.372;10.888;2023-09-30T00:55:22;17.40;99.90
34153;DHT22;20426;48.372;10.888;2023-09-30T00:55:53;17.40;99.90
34153;DHT22;20426;48.372;10.888;2023-09-30T00:56:27;17.40;99.90
34153;DHT22;20426;48.372;10.888;2023-09-30T00:56:58;17.30;99.90
34153;DHT22;20426;48.372;10.888;2023-09-30T00:57:31;17.30;99.90
34153;DHT22;20426;48.372;10.888;2023-09-30T00:58:02;17.30;99.90
34153;DHT22;20426;48.372;10.888;2023-09-30T00:58:34;17.30;99.90
34153;DHT22;20426;48.372;10.888;2023-09-30T00:59:06;17.20;99.90
34153;DHT22;20426;48.372;10.888;2023-09-30T00:59:36;17.20;99.90
34153;DHT22;20426;48.372;10.888;2023-09-30T01:00:08;17.20;99.90
34153;DHT22;20426;48.372;10.888;2023-09-30T01:00:42;17.20;99.90
34153;DHT22;20426;48.372;10.888;2023-09-30T01:01:14;17.10;99.90
34153;DHT22;20426;48.372;10.888;2023-09-30T01:01:46;17.10;99.90
34153;DHT22;20426;48.372;10.888;2023-09-30T01:02:18;17.10;99.90
34153;DHT22;20426;48.372;10.888;2023-09-30T01:02:48;17.10;99.90
34153;DHT22;20426;48.372;10.888;2023-09-30T01:03:19;17.10;99.90
34153;DHT22;20426;48.372;10.888;2023-09-30T01:03:50;17.10;99.90
34153;DHT22;20426;48.372;10.888;2023-09-30T01:04:21;17.10;99.90
34153;DHT22;20426;48.372;10.888;2023-09-30T01:04:52;17.00;99.90
34153;DHT22;20426;48.372;10.888;2023-09-30T01:05:24;17.10;99.90
34153;DHT22;20426;48.372;10.888;2023-09-30T01:05:54;17.00;99.90
34153;DHT22;20426;48.372;10.888;2023-09-30T01:06:26;17.00;99.90
34153;DHT22;20426;48.372;10.888;2023-09-30T01:06:57;17.00;99.90
34153;DHT22;20426;48.372;10.888;2023-09-30T01:07:28;17.00;99.90
34153;DHT22;20426;48.372;10.888;2023-09-30T01:08:01;17.00;99.90
34153;DHT22;20426;48.372;10.888;2023-09-30T01:08:32;17.00;99.90
34153;DHT22;20426;48.372;10.888;2023-09-30T01:09:04;17.00;99.90
34153;DHT22;20426;48.372;10.888;2023-09-30T01:09:35;17.00;99.90
34153;DHT22;20426;48.372;10.888;2023-09-30T01:10:07;16.90;99.90
34153;DHT22;20426;48.372;10.888;2023-09-30T01:10:38;16.90;99.90
34153;DHT22;20426;48.372;10.888;2023-09-30T01:11:09;16.90;99.90
34153;DHT22;20426;48.372;10.888;2023-09-30T01:11:40;16.90;99.90
34153;DHT22;20426;48.372;10.888;2023-09-30T01:12:11;16.90;99.90
34153;DHT22;20426;48.372;10.888;2023-09-30T01:12:42;16.90;99.90
34153;DHT22;20426;48.372;10.888;2023-09-30T01:13:13;16.90;99.90
34153;DHT22;20426;48.372;10.888;2023-09-30T01:13:43;16.90;99.90
34153;DHT22;20426;48.372;10.888;2023-09-30T01:14:59;16.90;99.90
34153;DHT22;20426;48.372;10.888;2023-09-30T01:15:35;16.90;99.90
34153;DHT22;20426;48.372;10.888;2023-09-30T01:16:08;16.90;99.90
34153;DHT22;20426;48.372;10.888;2023-09-30T01:16:42;16.90;99.90
34153;DHT22;20426;48.372;10.888;2023-09-30T01:17:12;16.90;99.90
34153;DHT22;20426;48.372;10.888;2023-09-30T01:17:47;16.90;99.90
34153;DHT22;20426;48.372;10.888;2023-09-30T01:18:17;16.80;99.90
34153;DHT22;20426;48.372;10.888;2023-09-30T01:18:48;16.80;99.90
34153;DHT22;20426;48.372;10.888;2023-09-30T01:19:19;16.80;99.90
34153;DHT22;20426;48.372;10.888;2023-09-30T01:19:49;16.90;99.90
34153;DHT22;20426;48.372;10.888;2023-09-30T01:20:20;16.90;99.90
34153;DHT22;20426;48.372;10.888;2023-09-30T01:20:52;16.80;99.90
34153;DHT22;20426;48.372;10.888;2023-09-30T01:21:24;16.90;99.90
34153;DHT22;20426;48.372;10.888;2023-09-30T01:21:56;16.80;99.90
34153;DHT22;20426;48.372;10.888;2023-09-30T01:22:34;16.80;99.90
34153;DHT22;20426;48.372;10.888;2023-09-30T01:23:05;16.80;99.90
34153;DHT22;20426;48.372;10.888;2023-09-30T01:23:36;16.80;99.90
34153;DHT22;20426;48.372;10.888;2023-09-30T01:24:06;16.80;99.90
34153;DHT22;20426;48.372;10.888;2023-09-30T01:24:41;16.80;99.90
34153;DHT22;20426;48.372;10.888;2023-09-30T01:25:12;16.80;99.90
34153;DHT22;20426;48.372;10.888;2023-09-30T01:25:43;16.80;99.90
34153;DHT22;20426;48.372;10.888;2023-09-30T01:26:14;16.80;99.90
34153;DHT22;20426;48.372;10.888;2023-09-30T01:26:45;16.80;99.90
34153;DHT22;20426;48.372;10.888;2023-09-30T01:27:16;16.80;99.90
34153;DHT22;20426;48.372;10.888;2023-09-30T01:27:49;16.80;99.90
34153;DHT22;20426;48.372;10.888;2023-09-30T01:28:21;16.80;99.90
34153;DHT22;20426;48.372;10.888;2023-09-30T01:28:53;16.80;99.90
34153;DHT22;20426;48.372;10.888;2023-09-30T01:29:25;16.80;99.90
34153;DHT22;20426;48.372;10.888;2023-09-30T01:29:56;16.80;99.90
34153;DHT22;20426;48.372;10.888;2023-09-30T01:30:28;16.80;99.90
34153;DHT22;20426;48.372;10.888;2023-09-30T01:30:59;16.70;99.90
34153;DHT22;20426;48.372;10.888;2023-09-30T01:31:29;16.80;99.90
34153;DHT22;20426;48.372;10.888;2023-09-30T01:32:00;16.80;99.90
34153;DHT22;20426;48.372;10.888;2023-09-30T01:32:31;16.70;99.90
34153;DHT22;20426;48.372;10.888;2023-09-30T01:33:02;16.70;99.90
34153;DHT22;20426;48.372;10.888;2023-09-30T01:33:33;16.70;99.90
34153;DHT22;20426;48.372;10.888;2023-09-30T01:34:04;16.70;99.90
34153;DHT22;20426;48.372;10.888;2023-09-30T01:34:36;16.70;99.90
34153;DHT22;20426;48.372;10.888;2023-09-30T01:35:07;16.70;99.90
34153;DHT22;20426;48.372;10.888;2023-09-30T01:35:38;16.70;99.90
34153;DHT22;20426;48.372;10.888;2023-09-30T01:36:08;16.70;99.90
34153;DHT22;20426;48.372;10.888;2023-09-30T01:36:39;16.70;99.90
34153;DHT22;20426;48.372;10.888;2023-09-30T01:37:10;16.70;99.90
34153;DHT22;20426;48.372;10.888;2023-09-30T01:37:40;16.70;99.90
34153;DHT22;20426;48.372;10.888;2023-09-30T01:38:11;16.70;99.90
34153;DHT22;20426;48.372;10.888;2023-09-30T01:38:42;16.70;99.90
34153;DHT22;20426;48.372;10.888;2023-09-30T01:39:13;16.70;99.90
34153;DHT22;20426;48.372;10.888;2023-09-30T01:39:43;16.70;99.90
34153;DHT22;20426;48.372;10.888;2023-09-30T01:40:15;16.70;99.90
34153;DHT22;20426;48.372;10.888;2023-09-30T01:40:48;16.70;99.90
34153;DHT22;20426;48.372;10.888;2023-09-30T01:41:19;16.70;99.90
34153;DHT22;20426;48.372;10.888;2023-09-30T01:41:49;16.70;99.90
34153;DHT22;20426;48.372;10.888;2023-09-30T01:42:21;16.70;99.90
34153;DHT22;20426;48.372;10.888;2023-09-30T01:42:51;16.70;99.90
34153;DHT22;20426;48.372;10.888;2023-09-30T01:43:22;16.70;99.90
34153;DHT22;20426;48.372;10.888;2023-09-30T01:43:53;16.70;99.90
34153;DHT22;20426;48.372;10.888;2023-09-30T01:44:23;16.70;99.90
34153;DHT22;20426;48.372;10.888;2023-09-30T01:44:54;16.70;99.90
34153;DHT22;20426;48.372;10.888;2023-09-30T01:45:25;16.70;99.90
34153;DHT22;20426;48.372;10.888;2023-09-30T01:45:55;16.70;99.90
34153;DHT22;20426;48.372;10.888;2023-09-30T01:46:26;16.70;99.90
34153;DHT22;20426;48.372;10.888;2023-09-30T01:46:57;16.70;99.90
34153;DHT22;20426;48.372;10.888;2023-09-30T01:47:28;16.70;99.90
34153;DHT22;20426;48.372;10.888;2023-09-30T01:47:58;16.70;99.90
34153;DHT22;20426;48.372;10.888;2023-09-30T01:48:29;16.70;99.90
34153;DHT22;20426;48.372;10.888;2023-09-30T01:49:00;16.60;99.90
34153;DHT22;20426;48.372;10.888;2023-09-30T01:49:30;16.60;99.90
34153;DHT22;20426;48.372;10.888;2023-09-30T01:50:01;16.60;99.90
34153;DHT22;20426;48.372;10.888;2023-09-30T01:50:31;16.60;99.90
34153;DHT22;20426;48.372;10.888;2023-09-30T01:51:02;16.60;99.90
34153;DHT22;20426;48.372;10.888;2023-09-30T01:51:33;16.60;99.90
34153;DHT22;20426;48.372;10.888;2023-09-30T01:52:04;16.60;99.90
34153;DHT22;20426;48.372;10.888;2023-09-30T01:52:34;16.60;99.90
34153;DHT22;20426;48.372;10.888;2023-09-30T01:53:06;16.60;99.90
34153;DHT22;20426;48.372;10.888;2023-09-30T01:53:37;16.60;99.90
34153;DHT22;20426;48.372;10.888;2023-09-30T01:54:07;16.60;99.90
34153;DHT22;20426;48.372;10.888;2023-09-30T01:54:38;16.60;99.90
34153;DHT22;20426;48.372;10.888;2023-09-30T01:55:09;16.60;99.90
34153;DHT22;20426;48.372;10.888;2023-09-30T01:55:39;16.60;99.90
34153;DHT22;20426;48.372;10.888;2023-09-30T01:56:10;16.60;99.90
34153;DHT22;20426;48.372;10.888;2023-09-30T01:56:41;16.60;99.90
34153;DHT22;20426;48.372;10.888;2023-09-30T01:57:11;16.60;99.90
34153;DHT22;20426;48.372;10.888;2023-09-30T01:57:42;16.60;99.90
34153;DHT22;20426;48.372;10.888;2023-09-30T01:58:13;16.60;99.90
34153;DHT22;20426;48.372;10.888;2023-09-30T01:58:43;16.60;99.90
34153;DHT22;20426;48.372;10.888;2023-09-30T01:59:14;16.60;99.90
34153;DHT22;20426;48.372;10.888;2023-09-30T01:59:45;16.60;99.90
34153;DHT22;20426;48.372;10.888;2023-09-30T02:00:16;16.60;99.90
34153;DHT22;20426;48.372;10.888;2023-09-30T02:00:47;16.60;99.90
34153;DHT22;20426;48.372;10.888;2023-09-30T02:01:18;16.60;99.90
34153;DHT22;20426;48.372;10.888;2023-09-30T02:01:49;16.60;99.90
34153;DHT22;20426;48.372;10.888;2023-09-30T02:02:19;16.60;99.90
34153;DHT22;20426;48.372;10.888;2023-09-30T02:02:50;16.60;99.90
34153;DHT22;20426;48.372;10.888;2023-09-30T02:03:21;16.50;99.90
34153;DHT22;20426;48.372;10.888;2023-09-30T02:03:52;16.50;99.90
34153;DHT22;20426;48.372;10.888;2023-09-30T02:04:22;16.50;99.90
34153;DHT22;20426;48.372;10.888;2023-09-30T02:04:53;16.50;99.90
34153;DHT22;20426;48.372;10.888;2023-09-30T02:05:24;16.50;99.90
34153;DHT22;20426;48.372;10.888;2023-09-30T02:05:58;16.50;99.90
34153;DHT22;20426;48.372;10.888;2023-09-30T02:06:28;16.50;99.90
34153;DHT22;20426;48.372;10.888;2023-09-30T02:06:59;16.50;99.90
34153;DHT22;20426;48.372;10.888;2023-09-30T02:07:30;16.50;99.90
34153;DHT22;20426;48.372;10.888;2023-09-30T02:08:01;16.50;99.90
34153;DHT22;20426;48.372;10.888;2023-09-30T02:08:36;16.50;99.90
34153;DHT22;20426;48.372;10.888;2023-09-30T02:09:07;16.50;99.90
34153;DHT22;20426;48.372;10.888;2023-09-30T02:09:39;16.50;99.90
34153;DHT22;20426;48.372;10.888;2023-09-30T02:10:10;16.50;99.90
34153;DHT22;20426;48.372;10.888;2023-09-30T02:10:40;16.50;99.90
34153;DHT22;20426;48.372;10.888;2023-09-30T02:11:11;16.50;99.90
34153;DHT22;20426;48.372;10.888;2023-09-30T02:11:43;16.50;99.90
34153;DHT22;20426;48.372;10.888;2023-09-30T02:12:14;16.50;99.90
34153;DHT22;20426;48.372;10.888;2023-09-30T02:12:45;16.50;99.90
34153;DHT22;20426;48.372;10.888;2023-09-30T02:13:16;16.50;99.90
34153;DHT22;20426;48.372;10.888;2023-09-30T02:13:47;16.50;99.90
34153;DHT22;20426;48.372;10.888;2023-09-30T02:14:18;16.50;99.90
34153;DHT22;20426;48.372;10.888;2023-09-30T02:14:48;16.50;99.90
34153;DHT22;20426;48.372;10.888;2023-09-30T02:15:19;16.50;99.90
34153;DHT22;20426;48.372;10.888;2023-09-30T02:15:50;16.50;99.90
34153;DHT22;20426;48.372;10.888;2023-09-30T02:16:21;16.50;99.90
34153;DHT22;20426;48.372;10.888;2023-09-30T02:16:53;16.50;99.90
34153;DHT22;20426;48.372;10.888;2023-09-30T02:17:23;16.50;99.90
34153;DHT22;20426;48.372;10.888;2023-09-30T02:17:54;16.50;99.90
34153;DHT22;20426;48.372;10.888;2023-09-30T02:18:25;16.50;99.90
34153;DHT22;20426;48.372;10.888;2023-09-30T02:18:55;16.50;99.90
34153;DHT22;20426;48.372;10.888;2023-09-30T02:19:26;16.50;99.90
34153;DHT22;20426;48.372;10.888;2023-09-30T02:19:58;16.50;99.90
34153;DHT22;20426;48.372;10.888;2023-09-30T02:20:28;16.50;99.90
34153;DHT22;20426;48.372;10.888;2023-09-30T02:21:01;16.50;99.90
34153;DHT22;20426;48.372;10.888;2023-09-30T02:21:31;16.40;99.90
34153;DHT22;20426;48.372;10.888;2023-09-30T02:22:02;16.50;99.90
34153;DHT22;20426;48.372;10.888;2023-09-30T02:22:33;16.40;99.90
34153;DHT22;20426;48.372;10.888;2023-09-30T02:23:04;16.40;99.90
34153;DHT22;20426;48.372;10.888;2023-09-30T02:23:36;16.40;99.90
34153;DHT22;20426;48.372;10.888;2023-09-30T02:24:07;16.40;99.90
34153;DHT22;20426;48.372;10.888;2023-09-30T02:24:37;16.40;99.90
34153;DHT22;20426;48.372;10.888;2023-09-30T02:25:11;16.40;99.90
34153;DHT22;20426;48.372;10.888;2023-09-30T02:25:42;16.40;99.90
34153;DHT22;20426;48.372;10.888;2023-09-30T02:26:16;16.40;99.90
34153;DHT22;20426;48.372;10.888;2023-09-30T02:26:47;16.40;99.90
34153;DHT22;20426;48.372;10.888;2023-09-30T02:27:18;16.40;99.90
34153;DHT22;20426;48.372;10.888;2023-09-30T02:27:49;16.40;99.90
34153;DHT22;20426;48.372;10.888;2023-09-30T02:28:20;16.40;99.90
34153;DHT22;20426;48.372;10.888;2023-09-30T02:28:51;16.40;99.90
34153;DHT22;20426;48.372;10.888;2023-09-30T02:29:23;16.40;99.90
34153;DHT22;20426;48.372;10.888;2023-09-30T02:29:53;16.40;99.90
34153;DHT22;20426;48.372;10.888;2023-09-30T02:30:24;16.40;99.90
34153;DHT22;20426;48.372;10.888;2023-09-30T02:30:55;16.40;99.90
34153;DHT22;20426;48.372;10.888;2023-09-30T02:31:25;16.40;99.90
34153;DHT22;20426;48.372;10.888;2023-09-30T02:31:56;16.40;99.90
34153;DHT22;20426;48.372;10.888;2023-09-30T02:32:27;16.40;99.90
34153;DHT22;20426;48.372;10.888;2023-09-30T02:32:58;16.40;99.90
34153;DHT22;20426;48.372;10.888;2023-09-30T02:33:28;16.40;99.90
34153;DHT22;20426;48.372;10.888;2023-09-30T02:33:59;16.40;99.90
34153;DHT22;20426;48.372;10.888;2023-09-30T02:34:32;16.40;99.90
34153;DHT22;20426;48.372;10.888;2023-09-30T02:35:04;16.40;99.90
34153;DHT22;20426;48.372;10.888;2023-09-30T02:35:36;16.40;99.90
34153;DHT22;20426;48.372;10.888;2023-09-30T02:36:09;16.40;99.90
34153;DHT22;20426;48.372;10.888;2023-09-30T02:36:40;16.40;99.90
34153;DHT22;20426;48.372;10.888;2023-09-30T02:37:10;16.40;99.90
34153;DHT22;20426;48.372;10.888;2023-09-30T02:37:41;16.40;99.90
34153;DHT22;20426;48.372;10.888;2023-09-30T02:38:12;16.40;99.90
34153;DHT22;20426;48.372;10.888;2023-09-30T02:38:46;16.40;99.90
34153;DHT22;20426;48.372;10.888;2023-09-30T02:39:17;16.40;99.90
34153;DHT22;20426;48.372;10.888;2023-09-30T02:39:48;16.40;99.90
34153;DHT22;20426;48.372;10.888;2023-09-30T02:40:19;16.40;99.90
34153;DHT22;20426;48.372;10.888;2023-09-30T02:40:50;16.40;99.90
34153;DHT22;20426;48.372;10.888;2023-09-30T02:41:21;16.40;99.90
34153;DHT22;20426;48.372;10.888;2023-09-30T02:41:52;16.40;99.90
34153;DHT22;20426;48.372;10.888;2023-09-30T02:42:23;16.40;99.90
34153;DHT22;20426;48.372;10.888;2023-09-30T02:42:54;16.40;99.90
34153;DHT22;20426;48.372;10.888;2023-09-30T02:43:24;16.40;99.90
34153;DHT22;20426;48.372;10.888;2023-09-30T02:43:55;16.40;99.90
34153;DHT22;20426;48.372;10.888;2023-09-30T02:44:26;16.40;99.90
34153;DHT22;20426;48.372;10.888;2023-09-30T02:44:59;16.40;99.90
34153;DHT22;20426;48.372;10.888;2023-09-30T02:45:29;16.40;99.90
34153;DHT22;20426;48.372;10.888;2023-09-30T02:46:00;16.40;99.90
34153;DHT22;20426;48.372;10.888;2023-09-30T02:46:31;16.40;99.90
34153;DHT22;20426;48.372;10.888;2023-09-30T02:47:01;16.40;99.90
34153;DHT22;20426;48.372;10.888;2023-09-30T02:47:32;16.40;99.90
34153;DHT22;20426;48.372;10.888;2023-09-30T02:48:03;16.40;99.90
34153;DHT22;20426;48.372;10.888;2023-09-30T02:48:34;16.40;99.90
34153;DHT22;20426;48.372;10.888;2023-09-30T02:49:05;16.40;99.90
34153;DHT22;20426;48.372;10.888;2023-09-30T02:49:35;16.40;99.90
34153;DHT22;20426;48.372;10.888;2023-09-30T02:50:07;16.40;99.90
34153;DHT22;20426;48.372;10.888;2023-09-30T02:50:44;16.40;99.90
34153;DHT22;20426;48.372;10.888;2023-09-30T02:51:17;16.40;99.90
34153;DHT22;20426;48.372;10.888;2023-09-30T02:51:48;16.40;99.90
34153;DHT22;20426;48.372;10.888;2023-09-30T02:52:19;16.40;99.90
34153;DHT22;20426;48.372;10.888;2023-09-30T02:52:49;16.40;99.90
34153;DHT22;20426;48.372;10.888;2023-09-30T02:53:20;16.40;99.90
34153;DHT22;20426;48.372;10.888;2023-09-30T02:53:51;16.40;99.90
34153;DHT22;20426;48.372;10.888;2023-09-30T02:54:21;16.40;99.90
34153;DHT22;20426;48.372;10.888;2023-09-30T02:54:52;16.40;99.90
34153;DHT22;20426;48.372;10.888;2023-09-30T02:55:23;16.40;99.90
34153;DHT22;20426;48.372;10.888;2023-09-30T02:55:53;16.50;99.90
34153;DHT22;20426;48.372;10.888;2023-09-30T02:56:27;16.50;99.90
34153;DHT22;20426;48.372;10.888;2023-09-30T02:57:00;16.50;99.90
34153;DHT22;20426;48.372;10.888;2023-09-30T02:57:34;16.50;99.90
34153;DHT22;20426;48.372;10.888;2023-09-30T02:58:06;16.50;99.90
34153;DHT22;20426;48.372;10.888;2023-09-30T02:58:38;16.50;99.90
34153;DHT22;20426;48.372;10.888;2023-09-30T02:59:10;16.50;99.90
34153;DHT22;20426;48.372;10.888;2023-09-30T02:59:41;16.40;99.90
34153;DHT22;20426;48.372;10.888;2023-09-30T03:00:12;16.50;99.90
34153;DHT22;20426;48.372;10.888;2023-09-30T03:01:03;16.50;99.90
34153;DHT22;20426;48.372;10.888;2023-09-30T03:01:34;16.40;99.90
34153;DHT22;20426;48.372;10.888;2023-09-30T03:02:04;16.50;99.90
34153;DHT22;20426;48.372;10.888;2023-09-30T03:02:35;16.50;99.90
34153;DHT22;20426;48.372;10.888;2023-09-30T03:03:06;16.50;99.90
34153;DHT22;20426;48.372;10.888;2023-09-30T03:03:36;16.40;99.90
34153;DHT22;20426;48.372;10.888;2023-09-30T03:04:07;16.40;99.90
34153;DHT22;20426;48.372;10.888;2023-09-30T03:04:40;16.40;99.90
34153;DHT22;20426;48.372;10.888;2023-09-30T03:05:10;16.40;99.90
34153;DHT22;20426;48.372;10.888;2023-09-30T03:05:43;16.40;99.90
34153;DHT22;20426;48.372;10.888;2023-09-30T03:06:15;16.40;99.90
34153;DHT22;20426;48.372;10.888;2023-09-30T03:06:49;16.40;99.90
34153;DHT22;20426;48.372;10.888;2023-09-30T03:07:20;16.40;99.90
34153;DHT22;20426;48.372;10.888;2023-09-30T03:07:51;16.40;99.90
34153;DHT22;20426;48.372;10.888;2023-09-30T03:08:21;16.40;99.90
34153;DHT22;20426;48.372;10.888;2023-09-30T03:08:52;16.40;99.90
34153;DHT22;20426;48.372;10.888;2023-09-30T03:09:23;16.30;99.90
34153;DHT22;20426;48.372;10.888;2023-09-30T03:09:54;16.40;99.90
34153;DHT22;20426;48.372;10.888;2023-09-30T03:10:24;16.30;99.90
34153;DHT22;20426;48.372;10.888;2023-09-30T03:10:57;16.40;99.90
34153;DHT22;20426;48.372;10.888;2023-09-30T03:11:28;16.40;99.90
34153;DHT22;20426;48.372;10.888;2023-09-30T03:12:00;16.40;99.90
34153;DHT22;20426;48.372;10.888;2023-09-30T03:12:32;16.40;99.90
34153;DHT22;20426;48.372;10.888;2023-09-30T03:13:02;16.40;99.90
34153;DHT22;20426;48.372;10.888;2023-09-30T03:13:33;16.40;99.90
34153;DHT22;20426;48.372;10.888;2023-09-30T03:14:04;16.40;99.90
34153;DHT22;20426;48.372;10.888;2023-09-30T03:14:39;16.40;99.90
34153;DHT22;20426;48.372;10.888;2023-09-30T03:15:10;16.40;99.90